sensor_id;sensor_type;location;lat;lon;timestamp;P1;durP1;ratioP1;P2;durP2;ratioP2
29344;SDS011;16339;48.748;2.222;2023-08-01T00:01:04;12.98;;;6.18;;
29344;SDS011;16339;48.748;2.222;2023-08-01T00:03:33;13.45;;;6.25;;
29344;SDS011;16339;48.748;2.222;2023-08-01T00:06:02;15.50;;;5.93;;
29344;SDS011;16339;48.748;2.222;2023-08-01T00:08:30;15.40;;;6.65;;
29344;SDS011;16339;48.748;2.222;2023-08-01T00:10:59;10.63;;;5.78;;
29344;SDS011;16339;48.748;2.222;2023-08-01T00:13:28;14.80;;;6.10;;
29344;SDS011;16339;48.748;2.222;2023-08-01T00:15:56;11.65;;;5.97;;
29344;SDS011;16339;48.748;2.222;2023-08-01T00:18:30;14.00;;;6.75;;
29344;SDS011;16339;48.748;2.222;2023-08-01T00:20:59;15.48;;;7.22;;
29344;SDS011;16339;48.748;2.222;2023-08-01T00:23:28;14.98;;;6.05;;
29344;SDS011;16339;48.748;2.222;2023-08-01T00:25:56;13.20;;;6.20;;
29344;SDS011;16339;48.748;2.222;2023-08-01T00:28:28;14.65;;;6.15;;
29344;SDS011;16339;48.748;2.222;2023-08-01T00:31:07;18.88;;;5.97;;
29344;SDS011;16339;48.748;2.222;2023-08-01T00:33:39;14.40;;;6.20;;
29344;SDS011;16339;48.748;2.222;2023-08-01T00:39:03;16.77;;;6.03;;
29344;SDS011;16339;48.748;2.222;2023-08-01T00:41:32;14.25;;;5.30;;
29344;SDS011;16339;48.748;2.222;2023-08-01T00:44:01;10.98;;;5.63;;
29344;SDS011;16339;48.748;2.222;2023-08-01T00:46:29;12.18;;;5.40;;
29344;SDS011;16339;48.748;2.222;2023-08-01T00:49:02;5.97;;;4.17;;
29344;SDS011;16339;48.748;2.222;2023-08-01T00:51:33;8.05;;;4.40;;
29344;SDS011;16339;48.748;2.222;2023-08-01T00:54:02;9.23;;;5.10;;
29344;SDS011;16339;48.748;2.222;2023-08-01T00:56:31;12.80;;;4.68;;
29344;SDS011;16339;48.748;2.222;2023-08-01T00:59:00;12.23;;;4.47;;
29344;SDS011;16339;48.748;2.222;2023-08-01T01:01:29;8.00;;;4.43;;
29344;SDS011;16339;48.748;2.222;2023-08-01T01:03:57;11.20;;;4.25;;
29344;SDS011;16339;48.748;2.222;2023-08-01T01:06:31;8.93;;;4.35;;
29344;SDS011;16339;48.748;2.222;2023-08-01T01:09:02;10.57;;;4.28;;
29344;SDS011;16339;48.748;2.222;2023-08-01T01:11:41;13.52;;;3.92;;
29344;SDS011;16339;48.748;2.222;2023-08-01T01:14:10;9.00;;;3.40;;
29344;SDS011;16339;48.748;2.222;2023-08-01T01:16:39;10.25;;;3.50;;
29344;SDS011;16339;48.748;2.222;2023-08-01T01:19:08;7.35;;;4.07;;
29344;SDS011;16339;48.748;2.222;2023-08-01T01:21:40;5.50;;;2.72;;
29344;SDS011;16339;48.748;2.222;2023-08-01T01:24:11;5.95;;;3.00;;
29344;SDS011;16339;48.748;2.222;2023-08-01T01:26:41;9.20;;;2.90;;
29344;SDS011;16339;48.748;2.222;2023-08-01T01:29:10;7.22;;;2.90;;
29344;SDS011;16339;48.748;2.222;2023-08-01T01:31:39;6.30;;;2.90;;
29344;SDS011;16339;48.748;2.222;2023-08-01T01:34:09;6.60;;;3.05;;
29344;SDS011;16339;48.748;2.222;2023-08-01T01:36:40;8.30;;;2.42;;
29344;SDS011;16339;48.748;2.222;2023-08-01T01:41:37;5.10;;;2.40;;
29344;SDS011;16339;48.748;2.222;2023-08-01T01:44:06;4.72;;;2.45;;
29344;SDS011;16339;48.748;2.222;2023-08-01T01:46:35;3.00;;;2.13;;
29344;SDS011;16339;48.748;2.222;2023-08-01T01:49:04;3.55;;;2.28;;
29344;SDS011;16339;48.748;2.222;2023-08-01T01:51:32;4.82;;;2.72;;
29344;SDS011;16339;48.748;2.222;2023-08-01T01:54:04;14.23;;;2.53;;
29344;SDS011;16339;48.748;2.222;2023-08-01T01:59:01;6.47;;;2.00;;
29344;SDS011;16339;48.748;2.222;2023-08-01T02:01:30;4.10;;;1.90;;
29344;SDS011;16339;48.748;2.222;2023-08-01T02:03:58;2.22;;;1.35;;
29344;SDS011;16339;48.748;2.222;2023-08-01T02:06:27;1.60;;;0.80;;
29344;SDS011;16339;48.748;2.222;2023-08-01T02:08:56;1.55;;;0.82;;
29344;SDS011;16339;48.748;2.222;2023-08-01T02:11:27;3.30;;;0.70;;
29344;SDS011;16339;48.748;2.222;2023-08-01T02:16:24;0.88;;;0.40;;
29344;SDS011;16339;48.748;2.222;2023-08-01T02:18:53;0.70;;;0.50;;
29344;SDS011;16339;48.748;2.222;2023-08-01T02:21:22;1.75;;;0.47;;
29344;SDS011;16339;48.748;2.222;2023-08-01T02:23:53;0.93;;;0.43;;
29344;SDS011;16339;48.748;2.222;2023-08-01T02:26:21;2.05;;;0.32;;
29344;SDS011;16339;48.748;2.222;2023-08-01T02:28:53;5.18;;;0.90;;
29344;SDS011;16339;48.748;2.222;2023-08-01T02:31:22;0.70;;;0.70;;
29344;SDS011;16339;48.748;2.222;2023-08-01T02:33:50;0.60;;;0.60;;
29344;SDS011;16339;48.748;2.222;2023-08-01T02:36:19;3.22;;;0.70;;
29344;SDS011;16339;48.748;2.222;2023-08-01T02:38:48;7.40;;;0.80;;
29344;SDS011;16339;48.748;2.222;2023-08-01T02:41:17;0.70;;;0.52;;
29344;SDS011;16339;48.748;2.222;2023-08-01T02:43:45;1.70;;;0.82;;
29344;SDS011;16339;48.748;2.222;2023-08-01T02:46:18;0.80;;;0.65;;
29344;SDS011;16339;48.748;2.222;2023-08-01T02:51:16;3.17;;;0.82;;
29344;SDS011;16339;48.748;2.222;2023-08-01T02:53:45;1.10;;;0.90;;
29344;SDS011;16339;48.748;2.222;2023-08-01T02:56:14;2.78;;;0.93;;
29344;SDS011;16339;48.748;2.222;2023-08-01T02:58:43;2.47;;;0.82;;
29344;SDS011;16339;48.748;2.222;2023-08-01T03:01:11;0.88;;;0.88;;
29344;SDS011;16339;48.748;2.222;2023-08-01T03:03:43;1.00;;;0.90;;
29344;SDS011;16339;48.748;2.222;2023-08-01T03:06:12;2.25;;;1.00;;
29344;SDS011;16339;48.748;2.222;2023-08-01T03:08:43;3.22;;;1.20;;
29344;SDS011;16339;48.748;2.222;2023-08-01T03:11:12;7.88;;;1.40;;
29344;SDS011;16339;48.748;2.222;2023-08-01T03:13:41;3.28;;;1.15;;
29344;SDS011;16339;48.748;2.222;2023-08-01T03:16:10;3.22;;;1.00;;
29344;SDS011;16339;48.748;2.222;2023-08-01T03:18:39;3.65;;;1.17;;
29344;SDS011;16339;48.748;2.222;2023-08-01T03:21:10;0.90;;;0.90;;
29344;SDS011;16339;48.748;2.222;2023-08-01T03:23:39;3.35;;;1.00;;
29344;SDS011;16339;48.748;2.222;2023-08-01T03:26:08;2.70;;;1.00;;
29344;SDS011;16339;48.748;2.222;2023-08-01T03:28:37;1.80;;;0.93;;
29344;SDS011;16339;48.748;2.222;2023-08-01T03:31:05;2.97;;;1.00;;
29344;SDS011;16339;48.748;2.222;2023-08-01T03:33:37;1.60;;;1.30;;
29344;SDS011;16339;48.748;2.222;2023-08-01T03:36:07;4.78;;;1.02;;
29344;SDS011;16339;48.748;2.222;2023-08-01T03:38:39;1.77;;;1.35;;
29344;SDS011;16339;48.748;2.222;2023-08-01T03:41:08;4.72;;;1.10;;
29344;SDS011;16339;48.748;2.222;2023-08-01T03:43:37;4.13;;;1.35;;
29344;SDS011;16339;48.748;2.222;2023-08-01T03:46:06;1.98;;;1.30;;
29344;SDS011;16339;48.748;2.222;2023-08-01T03:48:35;1.73;;;1.30;;
29344;SDS011;16339;48.748;2.222;2023-08-01T03:51:04;4.18;;;1.10;;
29344;SDS011;16339;48.748;2.222;2023-08-01T03:53:36;2.80;;;1.58;;
29344;SDS011;16339;48.748;2.222;2023-08-01T03:56:04;2.55;;;1.40;;
29344;SDS011;16339;48.748;2.222;2023-08-01T03:58:33;1.38;;;1.27;;
29344;SDS011;16339;48.748;2.222;2023-08-01T04:01:02;2.67;;;1.50;;
29344;SDS011;16339;48.748;2.222;2023-08-01T04:03:31;6.93;;;1.70;;
29344;SDS011;16339;48.748;2.222;2023-08-01T04:06:00;6.93;;;1.90;;
29344;SDS011;16339;48.748;2.222;2023-08-01T04:08:29;3.70;;;1.80;;
29344;SDS011;16339;48.748;2.222;2023-08-01T04:11:02;7.70;;;1.90;;
29344;SDS011;16339;48.748;2.222;2023-08-01T04:13:30;3.45;;;1.83;;
29344;SDS011;16339;48.748;2.222;2023-08-01T04:15:59;4.93;;;2.35;;
29344;SDS011;16339;48.748;2.222;2023-08-01T04:18:30;3.95;;;1.80;;
29344;SDS011;16339;48.748;2.222;2023-08-01T04:20:59;4.93;;;2.28;;
29344;SDS011;16339;48.748;2.222;2023-08-01T04:23:27;3.53;;;2.10;;
29344;SDS011;16339;48.748;2.222;2023-08-01T04:26:02;6.72;;;2.17;;
29344;SDS011;16339;48.748;2.222;2023-08-01T04:28:31;6.65;;;2.00;;
29344;SDS011;16339;48.748;2.222;2023-08-01T04:31:00;4.07;;;2.30;;
29344;SDS011;16339;48.748;2.222;2023-08-01T04:33:29;7.50;;;2.25;;
29344;SDS011;16339;48.748;2.222;2023-08-01T04:35:57;5.18;;;1.98;;
29344;SDS011;16339;48.748;2.222;2023-08-01T04:38:28;3.63;;;2.00;;
29344;SDS011;16339;48.748;2.222;2023-08-01T04:40:57;3.17;;;2.10;;
29344;SDS011;16339;48.748;2.222;2023-08-01T04:43:30;4.93;;;2.17;;
29344;SDS011;16339;48.748;2.222;2023-08-01T04:45:59;9.02;;;2.55;;
29344;SDS011;16339;48.748;2.222;2023-08-01T04:48:30;6.63;;;2.08;;
29344;SDS011;16339;48.748;2.222;2023-08-01T04:51:01;7.38;;;2.42;;
29344;SDS011;16339;48.748;2.222;2023-08-01T04:53:31;5.10;;;2.75;;
29344;SDS011;16339;48.748;2.222;2023-08-01T04:56:00;7.90;;;2.75;;
29344;SDS011;16339;48.748;2.222;2023-08-01T04:58:31;9.55;;;2.72;;
29344;SDS011;16339;48.748;2.222;2023-08-01T05:01:00;9.93;;;3.22;;
29344;SDS011;16339;48.748;2.222;2023-08-01T05:03:29;6.93;;;3.10;;
29344;SDS011;16339;48.748;2.222;2023-08-01T05:05:57;10.57;;;3.03;;
29344;SDS011;16339;48.748;2.222;2023-08-01T05:08:26;11.02;;;3.03;;
29344;SDS011;16339;48.748;2.222;2023-08-01T05:10:55;10.38;;;3.00;;
29344;SDS011;16339;48.748;2.222;2023-08-01T05:13:24;8.70;;;2.85;;
29344;SDS011;16339;48.748;2.222;2023-08-01T05:15:56;7.03;;;2.65;;
29344;SDS011;16339;48.748;2.222;2023-08-01T05:20:55;7.65;;;2.70;;
29344;SDS011;16339;48.748;2.222;2023-08-01T05:23:24;9.27;;;3.35;;
29344;SDS011;16339;48.748;2.222;2023-08-01T05:25:53;12.40;;;2.95;;
29344;SDS011;16339;48.748;2.222;2023-08-01T05:28:22;5.05;;;2.28;;
29344;SDS011;16339;48.748;2.222;2023-08-01T05:30:50;12.32;;;2.78;;
29344;SDS011;16339;48.748;2.222;2023-08-01T05:33:22;6.07;;;2.70;;
29344;SDS011;16339;48.748;2.222;2023-08-01T05:38:19;12.73;;;3.00;;
29344;SDS011;16339;48.748;2.222;2023-08-01T05:40:48;13.02;;;2.95;;
29344;SDS011;16339;48.748;2.222;2023-08-01T05:43:17;7.35;;;2.30;;
29344;SDS011;16339;48.748;2.222;2023-08-01T05:45:45;6.90;;;2.42;;
29344;SDS011;16339;48.748;2.222;2023-08-01T05:48:15;18.13;;;3.10;;
29344;SDS011;16339;48.748;2.222;2023-08-01T05:50:47;6.13;;;2.80;;
29344;SDS011;16339;48.748;2.222;2023-08-01T05:55:44;6.28;;;2.88;;
29344;SDS011;16339;48.748;2.222;2023-08-01T05:58:13;5.43;;;2.63;;
29344;SDS011;16339;48.748;2.222;2023-08-01T06:00:42;15.95;;;3.47;;
29344;SDS011;16339;48.748;2.222;2023-08-01T06:03:10;11.23;;;3.42;;
29344;SDS011;16339;48.748;2.222;2023-08-01T06:05:39;8.63;;;3.05;;
29344;SDS011;16339;48.748;2.222;2023-08-01T06:08:11;18.30;;;3.33;;
29344;SDS011;16339;48.748;2.222;2023-08-01T06:10:40;11.95;;;2.47;;
29344;SDS011;16339;48.748;2.222;2023-08-01T06:13:10;10.70;;;3.33;;
29344;SDS011;16339;48.748;2.222;2023-08-01T06:15:39;9.40;;;3.65;;
29344;SDS011;16339;48.748;2.222;2023-08-01T06:18:07;10.93;;;3.38;;
29344;SDS011;16339;48.748;2.222;2023-08-01T06:20:36;10.95;;;3.20;;
29344;SDS011;16339;48.748;2.222;2023-08-01T06:23:06;11.95;;;3.50;;
29344;SDS011;16339;48.748;2.222;2023-08-01T06:25:38;11.55;;;3.30;;
29344;SDS011;16339;48.748;2.222;2023-08-01T06:28:08;11.55;;;3.67;;
29344;SDS011;16339;48.748;2.222;2023-08-01T06:30:36;13.02;;;3.35;;
29344;SDS011;16339;48.748;2.222;2023-08-01T06:33:05;9.70;;;3.28;;
29344;SDS011;16339;48.748;2.222;2023-08-01T06:35:34;11.80;;;3.30;;
29344;SDS011;16339;48.748;2.222;2023-08-01T06:38:03;8.80;;;3.42;;
29344;SDS011;16339;48.748;2.222;2023-08-01T06:40:32;18.15;;;4.00;;
29344;SDS011;16339;48.748;2.222;2023-08-01T06:43:03;8.52;;;3.40;;
29344;SDS011;16339;48.748;2.222;2023-08-01T06:45:32;11.45;;;3.90;;
29344;SDS011;16339;48.748;2.222;2023-08-01T06:48:00;11.73;;;3.60;;
29344;SDS011;16339;48.748;2.222;2023-08-01T06:50:29;11.57;;;3.35;;
29344;SDS011;16339;48.748;2.222;2023-08-01T06:52:58;16.95;;;3.35;;
29344;SDS011;16339;48.748;2.222;2023-08-01T06:55:28;10.48;;;3.30;;
29344;SDS011;16339;48.748;2.222;2023-08-01T06:57:57;14.35;;;3.97;;
29344;SDS011;16339;48.748;2.222;2023-08-01T07:00:28;19.23;;;3.83;;
29344;SDS011;16339;48.748;2.222;2023-08-01T07:02:57;8.23;;;3.40;;
29344;SDS011;16339;48.748;2.222;2023-08-01T07:05:25;18.02;;;4.05;;
29344;SDS011;16339;48.748;2.222;2023-08-01T07:07:54;17.08;;;3.70;;
29344;SDS011;16339;48.748;2.222;2023-08-01T07:10:24;12.32;;;3.30;;
29344;SDS011;16339;48.748;2.222;2023-08-01T07:12:53;12.02;;;3.55;;
29344;SDS011;16339;48.748;2.222;2023-08-01T07:15:23;11.63;;;3.38;;
29344;SDS011;16339;48.748;2.222;2023-08-01T07:17:54;11.10;;;3.33;;
29344;SDS011;16339;48.748;2.222;2023-08-01T07:20:23;10.05;;;3.58;;
29344;SDS011;16339;48.748;2.222;2023-08-01T07:22:51;12.95;;;3.78;;
29344;SDS011;16339;48.748;2.222;2023-08-01T07:25:20;12.55;;;3.63;;
29344;SDS011;16339;48.748;2.222;2023-08-01T07:27:50;18.00;;;3.60;;
29344;SDS011;16339;48.748;2.222;2023-08-01T07:30:19;11.88;;;3.38;;
29344;SDS011;16339;48.748;2.222;2023-08-01T07:32:47;17.80;;;3.78;;
29344;SDS011;16339;48.748;2.222;2023-08-01T07:35:19;16.20;;;3.90;;
29344;SDS011;16339;48.748;2.222;2023-08-01T07:40:16;9.32;;;3.17;;
29344;SDS011;16339;48.748;2.222;2023-08-01T07:42:45;17.50;;;4.43;;
29344;SDS011;16339;48.748;2.222;2023-08-01T07:45:14;10.52;;;3.28;;
29344;SDS011;16339;48.748;2.222;2023-08-01T07:47:47;12.88;;;3.75;;
29344;SDS011;16339;48.748;2.222;2023-08-01T07:50:28;16.63;;;3.95;;
29344;SDS011;16339;48.748;2.222;2023-08-01T07:52:56;11.80;;;3.20;;
29344;SDS011;16339;48.748;2.222;2023-08-01T07:55:25;18.27;;;3.90;;
29344;SDS011;16339;48.748;2.222;2023-08-01T07:57:54;19.67;;;3.63;;
29344;SDS011;16339;48.748;2.222;2023-08-01T08:00:27;7.70;;;2.95;;
29344;SDS011;16339;48.748;2.222;2023-08-01T08:02:59;12.35;;;3.50;;
29344;SDS011;16339;48.748;2.222;2023-08-01T08:05:32;10.00;;;3.38;;
29344;SDS011;16339;48.748;2.222;2023-08-01T08:08:04;13.48;;;3.53;;
29344;SDS011;16339;48.748;2.222;2023-08-01T08:10:40;12.18;;;3.60;;
29344;SDS011;16339;48.748;2.222;2023-08-01T08:13:09;12.50;;;3.25;;
29344;SDS011;16339;48.748;2.222;2023-08-01T08:15:39;15.65;;;3.75;;
29344;SDS011;16339;48.748;2.222;2023-08-01T08:18:07;12.27;;;3.22;;
29344;SDS011;16339;48.748;2.222;2023-08-01T08:20:43;12.05;;;3.00;;
29344;SDS011;16339;48.748;2.222;2023-08-01T08:29:23;9.13;;;3.05;;
29344;SDS011;16339;48.748;2.222;2023-08-01T08:32:24;7.70;;;3.38;;
29344;SDS011;16339;48.748;2.222;2023-08-01T08:41:22;10.32;;;3.35;;
29344;SDS011;16339;48.748;2.222;2023-08-01T08:47:47;17.00;;;3.50;;
29344;SDS011;16339;48.748;2.222;2023-08-01T08:50:25;12.55;;;3.25;;
29344;SDS011;16339;48.748;2.222;2023-08-01T08:52:55;11.73;;;2.88;;
29344;SDS011;16339;48.748;2.222;2023-08-01T08:55:24;13.57;;;3.17;;
29344;SDS011;16339;48.748;2.222;2023-08-01T09:07:29;14.15;;;3.42;;
29344;SDS011;16339;48.748;2.222;2023-08-01T09:10:01;16.45;;;3.42;;
29344;SDS011;16339;48.748;2.222;2023-08-01T09:12:33;13.32;;;3.60;;
29344;SDS011;16339;48.748;2.222;2023-08-01T09:15:19;14.95;;;3.58;;
29344;SDS011;16339;48.748;2.222;2023-08-01T09:17:49;11.60;;;3.13;;
29344;SDS011;16339;48.748;2.222;2023-08-01T09:20:22;12.35;;;3.63;;
29344;SDS011;16339;48.748;2.222;2023-08-01T09:23:24;14.07;;;3.25;;
29344;SDS011;16339;48.748;2.222;2023-08-01T09:29:20;14.63;;;3.30;;
29344;SDS011;16339;48.748;2.222;2023-08-01T09:30:12;12.93;;;3.45;;
29344;SDS011;16339;48.748;2.222;2023-08-01T09:32:55;8.32;;;2.92;;
29344;SDS011;16339;48.748;2.222;2023-08-01T09:35:38;9.73;;;3.03;;
29344;SDS011;16339;48.748;2.222;2023-08-01T09:44:26;11.95;;;3.22;;
29344;SDS011;16339;48.748;2.222;2023-08-01T09:47:12;14.80;;;3.10;;
29344;SDS011;16339;48.748;2.222;2023-08-01T09:49:51;13.40;;;3.40;;
29344;SDS011;16339;48.748;2.222;2023-08-01T09:52:26;12.02;;;2.85;;
29344;SDS011;16339;48.748;2.222;2023-08-01T09:54:55;11.60;;;2.83;;
29344;SDS011;16339;48.748;2.222;2023-08-01T09:57:24;11.40;;;3.10;;
29344;SDS011;16339;48.748;2.222;2023-08-01T09:59:57;14.20;;;3.22;;
29344;SDS011;16339;48.748;2.222;2023-08-01T10:02:28;7.85;;;2.80;;
29344;SDS011;16339;48.748;2.222;2023-08-01T10:05:02;17.70;;;3.15;;
29344;SDS011;16339;48.748;2.222;2023-08-01T10:07:36;10.07;;;3.28;;
29344;SDS011;16339;48.748;2.222;2023-08-01T10:10:10;9.57;;;2.63;;
29344;SDS011;16339;48.748;2.222;2023-08-01T10:12:49;10.60;;;2.60;;
29344;SDS011;16339;48.748;2.222;2023-08-01T10:15:19;7.05;;;2.53;;
29344;SDS011;16339;48.748;2.222;2023-08-01T10:17:48;11.90;;;2.53;;
29344;SDS011;16339;48.748;2.222;2023-08-01T10:20:20;18.05;;;3.38;;
29344;SDS011;16339;48.748;2.222;2023-08-01T10:22:51;8.65;;;3.08;;
29344;SDS011;16339;48.748;2.222;2023-08-01T10:25:23;13.73;;;2.50;;
29344;SDS011;16339;48.748;2.222;2023-08-01T10:27:58;7.80;;;2.50;;
29344;SDS011;16339;48.748;2.222;2023-08-01T10:30:28;10.95;;;2.88;;
29344;SDS011;16339;48.748;2.222;2023-08-01T10:32:58;13.77;;;2.53;;
29344;SDS011;16339;48.748;2.222;2023-08-01T10:35:37;7.10;;;2.38;;
29344;SDS011;16339;48.748;2.222;2023-08-01T10:38:10;8.98;;;2.65;;
29344;SDS011;16339;48.748;2.222;2023-08-01T10:40:46;9.00;;;2.53;;
29344;SDS011;16339;48.748;2.222;2023-08-01T10:43:20;7.47;;;2.70;;
29344;SDS011;16339;48.748;2.222;2023-08-01T10:45:59;6.50;;;2.22;;
29344;SDS011;16339;48.748;2.222;2023-08-01T10:48:34;10.25;;;2.83;;
29344;SDS011;16339;48.748;2.222;2023-08-01T10:51:21;5.65;;;2.55;;
29344;SDS011;16339;48.748;2.222;2023-08-01T10:56:19;4.28;;;2.30;;
29344;SDS011;16339;48.748;2.222;2023-08-01T10:58:48;7.60;;;2.25;;
29344;SDS011;16339;48.748;2.222;2023-08-01T11:01:18;12.32;;;2.63;;
29344;SDS011;16339;48.748;2.222;2023-08-01T11:03:47;6.80;;;2.10;;
29344;SDS011;16339;48.748;2.222;2023-08-01T11:06:15;7.25;;;2.40;;
29344;SDS011;16339;48.748;2.222;2023-08-01T11:08:47;4.53;;;2.00;;
29344;SDS011;16339;48.748;2.222;2023-08-01T11:13:49;4.15;;;2.00;;
29344;SDS011;16339;48.748;2.222;2023-08-01T11:16:21;4.70;;;2.08;;
29344;SDS011;16339;48.748;2.222;2023-08-01T11:18:50;10.38;;;2.72;;
29344;SDS011;16339;48.748;2.222;2023-08-01T11:21:25;7.65;;;2.45;;
29344;SDS011;16339;48.748;2.222;2023-08-01T11:23:58;11.50;;;2.17;;
29344;SDS011;16339;48.748;2.222;2023-08-01T11:26:27;6.45;;;2.00;;
29344;SDS011;16339;48.748;2.222;2023-08-01T11:28:56;6.18;;;2.20;;
29344;SDS011;16339;48.748;2.222;2023-08-01T11:31:30;5.10;;;2.30;;
29344;SDS011;16339;48.748;2.222;2023-08-01T11:34:01;5.10;;;2.42;;
29344;SDS011;16339;48.748;2.222;2023-08-01T11:36:39;10.90;;;2.55;;
29344;SDS011;16339;48.748;2.222;2023-08-01T11:42:34;9.15;;;2.85;;
29344;SDS011;16339;48.748;2.222;2023-08-01T11:45:10;8.32;;;2.70;;
29344;SDS011;16339;48.748;2.222;2023-08-01T11:47:46;14.60;;;3.13;;
29344;SDS011;16339;48.748;2.222;2023-08-01T12:00:10;11.95;;;2.70;;
29344;SDS011;16339;48.748;2.222;2023-08-01T12:19:46;5.45;;;2.28;;
29344;SDS011;16339;48.748;2.222;2023-08-01T12:31:17;10.35;;;2.67;;
29344;SDS011;16339;48.748;2.222;2023-08-01T12:33:47;6.63;;;2.25;;
29344;SDS011;16339;48.748;2.222;2023-08-01T12:52:27;10.57;;;2.90;;
29344;SDS011;16339;48.748;2.222;2023-08-01T12:55:06;11.13;;;3.08;;
29344;SDS011;16339;48.748;2.222;2023-08-01T13:03:09;8.00;;;2.63;;
29344;SDS011;16339;48.748;2.222;2023-08-01T13:03:47;8.98;;;3.25;;
29344;SDS011;16339;48.748;2.222;2023-08-01T13:06:16;14.98;;;3.53;;
29344;SDS011;16339;48.748;2.222;2023-08-01T13:08:47;10.25;;;3.63;;
29344;SDS011;16339;48.748;2.222;2023-08-01T13:11:16;11.75;;;3.25;;
29344;SDS011;16339;48.748;2.222;2023-08-01T13:13:45;7.25;;;3.38;;
29344;SDS011;16339;48.748;2.222;2023-08-01T13:16:13;13.57;;;3.38;;
29344;SDS011;16339;48.748;2.222;2023-08-01T13:18:42;10.32;;;3.13;;
29344;SDS011;16339;48.748;2.222;2023-08-01T13:21:13;12.13;;;3.55;;
29344;SDS011;16339;48.748;2.222;2023-08-01T13:23:42;9.57;;;3.38;;
29344;SDS011;16339;48.748;2.222;2023-08-01T13:26:13;6.93;;;3.13;;
29344;SDS011;16339;48.748;2.222;2023-08-01T13:35:10;6.70;;;3.08;;
29344;SDS011;16339;48.748;2.222;2023-08-01T13:37:39;6.55;;;2.75;;
29344;SDS011;16339;48.748;2.222;2023-08-01T13:40:08;8.63;;;2.65;;
29344;SDS011;16339;48.748;2.222;2023-08-01T13:42:43;8.45;;;2.67;;
29344;SDS011;16339;48.748;2.222;2023-08-01T13:45:18;9.23;;;2.83;;
29344;SDS011;16339;48.748;2.222;2023-08-01T13:47:47;13.50;;;2.70;;
29344;SDS011;16339;48.748;2.222;2023-08-01T13:50:17;5.90;;;2.63;;
29344;SDS011;16339;48.748;2.222;2023-08-01T13:56:18;3.35;;;1.90;;
29344;SDS011;16339;48.748;2.222;2023-08-01T13:59:05;5.50;;;2.03;;
29344;SDS011;16339;48.748;2.222;2023-08-01T14:04:45;4.40;;;1.90;;
29344;SDS011;16339;48.748;2.222;2023-08-01T14:07:24;8.57;;;2.08;;
29344;SDS011;16339;48.748;2.222;2023-08-01T14:10:51;8.70;;;2.28;;
29344;SDS011;16339;48.748;2.222;2023-08-01T14:13:25;7.53;;;2.13;;
29344;SDS011;16339;48.748;2.222;2023-08-01T14:16:15;3.75;;;2.05;;
29344;SDS011;16339;48.748;2.222;2023-08-01T14:18:44;5.97;;;2.60;;
29344;SDS011;16339;48.748;2.222;2023-08-01T14:21:34;7.80;;;2.63;;
29344;SDS011;16339;48.748;2.222;2023-08-01T14:24:17;6.43;;;2.30;;
29344;SDS011;16339;48.748;2.222;2023-08-01T14:27:15;9.90;;;3.10;;
29344;SDS011;16339;48.748;2.222;2023-08-01T14:29:50;5.28;;;2.50;;
29344;SDS011;16339;48.748;2.222;2023-08-01T14:32:22;10.50;;;2.40;;
29344;SDS011;16339;48.748;2.222;2023-08-01T14:34:51;11.70;;;2.83;;
29344;SDS011;16339;48.748;2.222;2023-08-01T14:37:24;5.28;;;2.50;;
29344;SDS011;16339;48.748;2.222;2023-08-01T14:40:26;18.65;;;2.92;;
29344;SDS011;16339;48.748;2.222;2023-08-01T14:43:25;11.15;;;2.50;;
29344;SDS011;16339;48.748;2.222;2023-08-01T14:58:30;10.02;;;3.38;;
29344;SDS011;16339;48.748;2.222;2023-08-01T15:04:06;7.00;;;3.22;;
29344;SDS011;16339;48.748;2.222;2023-08-01T15:06:39;5.40;;;2.92;;
29344;SDS011;16339;48.748;2.222;2023-08-01T15:09:11;9.23;;;3.05;;
29344;SDS011;16339;48.748;2.222;2023-08-01T15:11:39;9.15;;;3.58;;
29344;SDS011;16339;48.748;2.222;2023-08-01T15:14:11;7.70;;;3.25;;
29344;SDS011;16339;48.748;2.222;2023-08-01T15:16:43;5.95;;;2.97;;
29344;SDS011;16339;48.748;2.222;2023-08-01T15:25:06;9.20;;;3.28;;
29344;SDS011;16339;48.748;2.222;2023-08-01T15:27:42;9.57;;;3.20;;
29344;SDS011;16339;48.748;2.222;2023-08-01T15:30:22;6.68;;;3.33;;
29344;SDS011;16339;48.748;2.222;2023-08-01T15:35:35;6.32;;;3.03;;
29344;SDS011;16339;48.748;2.222;2023-08-01T15:38:04;9.35;;;3.38;;
29344;SDS011;16339;48.748;2.222;2023-08-01T15:40:43;8.57;;;3.17;;
29344;SDS011;16339;48.748;2.222;2023-08-01T15:43:33;6.35;;;3.33;;
29344;SDS011;16339;48.748;2.222;2023-08-01T15:46:06;6.82;;;2.88;;
29344;SDS011;16339;48.748;2.222;2023-08-01T15:48:57;6.32;;;3.08;;
29344;SDS011;16339;48.748;2.222;2023-08-01T15:51:32;4.63;;;3.10;;
29344;SDS011;16339;48.748;2.222;2023-08-01T15:57:18;5.28;;;2.97;;
29344;SDS011;16339;48.748;2.222;2023-08-01T16:02:35;4.60;;;2.50;;
29344;SDS011;16339;48.748;2.222;2023-08-01T16:05:09;6.90;;;3.10;;
29344;SDS011;16339;48.748;2.222;2023-08-01T16:07:40;6.63;;;3.03;;
29344;SDS011;16339;48.748;2.222;2023-08-01T16:10:09;4.43;;;2.50;;
29344;SDS011;16339;48.748;2.222;2023-08-01T16:12:38;4.65;;;2.50;;
29344;SDS011;16339;48.748;2.222;2023-08-01T16:15:07;7.20;;;2.78;;
29344;SDS011;16339;48.748;2.222;2023-08-01T16:17:39;11.57;;;2.85;;
29344;SDS011;16339;48.748;2.222;2023-08-01T16:26:36;6.68;;;2.50;;
29344;SDS011;16339;48.748;2.222;2023-08-01T16:29:07;4.05;;;2.53;;
29344;SDS011;16339;48.748;2.222;2023-08-01T16:31:37;4.55;;;2.35;;
29344;SDS011;16339;48.748;2.222;2023-08-01T16:34:08;5.05;;;2.70;;
29344;SDS011;16339;48.748;2.222;2023-08-01T16:36:37;4.13;;;2.60;;
29344;SDS011;16339;48.748;2.222;2023-08-01T16:41:19;4.95;;;2.50;;
29344;SDS011;16339;48.748;2.222;2023-08-01T17:19:41;5.47;;;2.80;;
29344;SDS011;16339;48.748;2.222;2023-08-01T17:22:15;4.85;;;2.90;;
29344;SDS011;16339;48.748;2.222;2023-08-01T17:51:45;9.90;;;4.07;;
29344;SDS011;16339;48.748;2.222;2023-08-01T18:01:08;9.77;;;3.60;;
29344;SDS011;16339;48.748;2.222;2023-08-01T18:03:41;6.20;;;3.50;;
29344;SDS011;16339;48.748;2.222;2023-08-01T18:06:20;8.45;;;3.88;;
29344;SDS011;16339;48.748;2.222;2023-08-01T18:09:03;7.20;;;3.45;;
29344;SDS011;16339;48.748;2.222;2023-08-01T18:11:52;9.00;;;3.90;;
29344;SDS011;16339;48.748;2.222;2023-08-01T18:21:21;8.18;;;3.65;;
29344;SDS011;16339;48.748;2.222;2023-08-01T18:23:59;13.45;;;3.63;;
29344;SDS011;16339;48.748;2.222;2023-08-01T21:41:52;13.23;;;5.28;;
29344;SDS011;16339;48.748;2.222;2023-08-01T21:44:25;8.57;;;4.60;;
29344;SDS011;16339;48.748;2.222;2023-08-01T21:46:59;16.10;;;5.15;;
29344;SDS011;16339;48.748;2.222;2023-08-01T21:49:28;9.98;;;5.47;;
29344;SDS011;16339;48.748;2.222;2023-08-01T21:51:59;8.85;;;5.20;;
29344;SDS011;16339;48.748;2.222;2023-08-01T21:54:36;16.88;;;4.85;;
29344;SDS011;16339;48.748;2.222;2023-08-01T21:57:08;10.45;;;4.90;;
29344;SDS011;16339;48.748;2.222;2023-08-01T21:59:37;8.68;;;4.82;;
29344;SDS011;16339;48.748;2.222;2023-08-01T22:15:31;12.15;;;4.63;;
29344;SDS011;16339;48.748;2.222;2023-08-01T22:18:01;9.30;;;4.55;;
29344;SDS011;16339;48.748;2.222;2023-08-01T22:20:55;7.70;;;5.00;;
29344;SDS011;16339;48.748;2.222;2023-08-01T22:23:33;11.73;;;4.93;;
29344;SDS011;16339;48.748;2.222;2023-08-01T22:26:02;10.88;;;4.70;;
29344;SDS011;16339;48.748;2.222;2023-08-01T22:28:34;9.40;;;4.78;;
29344;SDS011;16339;48.748;2.222;2023-08-01T22:31:08;13.05;;;4.93;;
29344;SDS011;16339;48.748;2.222;2023-08-01T22:33:37;8.88;;;4.72;;
29344;SDS011;16339;48.748;2.222;2023-08-01T22:36:09;13.38;;;5.30;;
29344;SDS011;16339;48.748;2.222;2023-08-01T22:38:40;12.32;;;4.30;;
29344;SDS011;16339;48.748;2.222;2023-08-01T22:41:14;8.95;;;4.63;;
29344;SDS011;16339;48.748;2.222;2023-08-01T22:43:55;9.35;;;4.70;;
29344;SDS011;16339;48.748;2.222;2023-08-01T22:46:32;9.88;;;5.07;;
29344;SDS011;16339;48.748;2.222;2023-08-01T22:49:05;9.93;;;4.60;;